Time;durP1;ratioP1;P1;durP2;ratioP2;P2;SDS_P1;SDS_P2;PMS_P1;PMS_P2;Temp;Humidity;BMP_temperature;BMP_pressure;BME280_temperature;BME280_humidity;BME280_pressure;Samples;Min_cycle;Max_cycle;Signal;HPM_P1;HPM_P2
2022/01/21 00:02:00;;;;;;;;;18.00;18.00;;;;;-0.53;91.91;99787.69;6285611;20;2826315;-42
2022/01/21 00:04:28;;;;;;;;;16.50;13.00;;;;;-0.38;92.37;99787.47;6284376;20;2781774;-42
2022/01/21 00:06:57;;;;;;;;;24.67;14.00;;;;;-0.36;91.10;99788.31;6289074;20;3537814;-42
2022/01/21 00:09:24;;;;;;;;;15.00;11.00;;;;;-0.41;91.72;99787.53;6316576;20;2803454;-43
2022/01/21 00:11:52;;;;;;;;;12.00;11.50;;;;;-0.33;92.46;99790.03;6288247;20;2770126;-43
2022/01/21 00:14:20;;;;;;;;;11.50;10.00;;;;;-0.51;92.10;99796.47;6285435;20;2789833;-42
2022/01/21 00:16:48;;;;;;;;;11.00;8.00;;;;;-0.40;91.20;99797.16;6287927;20;2747122;-42
2022/01/21 00:19:20;;;;;;;;;15.67;8.33;;;;;-0.47;91.49;99785.00;6357153;20;1807577;-42
2022/01/21 00:30:14;;;;;;;;;15.00;12.00;;;;;-0.85;93.95;99781.13;6317856;20;2776291;-42
2022/01/21 00:32:47;;;;;;;;;12.00;10.25;;;;;-0.98;94.71;99783.03;6305249;20;1838034;-42
2022/01/21 00:35:19;;;;;;;;;9.00;8.50;;;;;-0.90;94.63;99772.41;6331298;20;1830606;-43
2022/01/21 00:37:50;;;;;;;;;17.50;10.00;;;;;-1.03;95.38;99778.72;6318449;20;2802346;-44
2022/01/21 00:40:22;;;;;;;;;16.75;10.00;;;;;-1.03;95.45;99781.38;6301488;20;1818463;-41
2022/01/21 00:43:12;;;;;;;;;10.00;8.00;;;;;-1.05;95.94;99788.41;6317566;20;2753413;-42
2022/01/21 00:45:40;;;;;;;;;14.00;10.00;;;;;-1.38;96.74;99787.94;6285286;20;2795216;-44
2022/01/21 00:48:09;;;;;;;;;13.00;9.75;;;;;-1.18;96.34;99788.59;6304588;20;1824682;-42
2022/01/21 00:50:36;;;;;;;;;13.50;12.00;;;;;-1.33;97.30;99784.38;6317134;20;2789850;-44
2022/01/21 00:53:04;;;;;;;;;19.50;11.00;;;;;-1.34;97.01;99787.91;6284593;20;2795038;-45
2022/01/21 00:55:33;;;;;;;;;13.25;10.00;;;;;-1.49;97.65;99793.34;6301677;20;1841003;-44
2022/01/21 00:58:01;;;;;;;;;14.00;8.00;;;;;-1.23;97.93;99785.13;6316015;20;2750236;-45
2022/01/21 01:00:29;;;;;;;;;17.00;12.00;;;;;-1.21;97.48;99780.72;6317922;20;2785695;-43
2022/01/21 01:02:57;;;;;;;;;18.00;9.00;;;;;-1.46;97.69;99776.63;6282387;20;2789030;-41
2022/01/21 01:05:26;;;;;;;;;14.00;9.00;;;;;-1.03;97.00;99773.47;6286584;20;2760738;-44
2022/01/21 01:07:55;;;;;;;;;11.00;7.67;;;;;-1.29;96.62;99779.94;6307539;20;1829554;-42
2022/01/21 01:10:37;;;;;;;;;15.00;11.00;;;;;-1.42;96.79;99767.78;6316355;20;2776283;-43
2022/01/21 01:21:26;;;;;;;;;12.00;7.00;;;;;-1.42;95.43;99767.78;6335264;20;1833706;-42
2022/01/21 01:29:26;;;;;;;;;16.50;9.00;;;;;-1.20;95.82;99758.75;6317863;20;2767023;-42
2022/01/21 01:31:54;;;;;;;;;8.25;7.00;;;;;-1.15;95.91;99770.09;6301465;20;1821574;-42
2022/01/21 01:34:23;;;;;;;;;8.00;5.50;;;;;-1.02;95.22;99775.22;6335811;20;1816751;-42
2022/01/21 01:36:57;;;;;;;;;10.75;8.00;;;;;-1.13;95.04;99770.97;6336965;20;1825405;-42
2022/01/21 01:39:34;;;;;;;;;19.00;14.50;;;;;-1.00;94.15;99773.41;6317504;20;2800398;-43
2022/01/21 01:50:42;;;;;;;;;17.00;17.00;;;;;-1.25;95.14;99773.75;6285438;20;2811784;-42
2022/01/21 01:53:12;;;;;;;;;16.00;16.00;;;;;-1.29;95.67;99758.88;6310051;20;2820054;-44
2022/01/21 01:55:41;;;;;;;;;19.33;17.33;;;;;-1.16;95.27;99776.28;6282620;20;3553338;-42
2022/01/21 01:58:13;;;;;;;;;21.00;18.00;;;;;-1.38;95.33;99769.50;6316222;20;3559604;-43
2022/01/21 02:00:42;;;;;;;;;29.00;20.50;;;;;-1.23;95.35;99774.59;6315870;20;2852335;-44
2022/01/21 02:03:16;;;;;;;;;17.00;11.00;;;;;-1.21;94.79;99782.47;6281132;20;2779515;-41
2022/01/21 02:05:44;;;;;;;;;18.00;12.00;;;;;-1.16;94.33;99773.63;6281983;20;2794150;-42
2022/01/21 02:08:14;;;;;;;;;18.60;14.20;;;;;-1.23;94.33;99757.94;6305855;20;2823250;-42
2022/01/21 02:10:42;;;;;;;;;17.00;15.00;;;;;-1.34;95.04;99758.94;6280883;20;2805554;-41
2022/01/21 02:13:20;;;;;;;;;18.00;14.75;;;;;-1.48;95.82;99754.72;6303299;20;1829537;-43
2022/01/21 02:21:48;;;;;;;;;4.00;4.00;;;;;-1.35;96.62;99765.06;6315053;20;2735824;-43
2022/01/21 02:24:34;;;;;;;;;12.50;11.00;;;;;-1.17;96.32;99765.75;6314253;20;2770071;-43
2022/01/21 02:27:03;;;;;;;;;11.00;11.00;;;;;-1.31;96.63;99765.91;6284393;20;2786794;-43
2022/01/21 02:29:43;;;;;;;;;14.00;9.00;;;;;-1.45;96.68;99767.84;6281947;20;2765242;-42
2022/01/21 02:32:11;;;;;;;;;12.00;9.00;;;;;-1.29;96.68;99765.88;6282635;20;2774225;-43
2022/01/21 02:34:40;;;;;;;;;11.50;9.75;;;;;-1.32;96.94;99779.97;6301089;20;1828378;-42
2022/01/21 02:37:16;;;;;;;;;13.75;10.00;;;;;-1.29;96.32;99787.84;6330769;20;1820165;-43
2022/01/21 02:39:46;;;;;;;;;7.00;4.75;;;;;-1.32;95.74;99785.22;6331869;20;1819016;-42
2022/01/21 02:42:16;;;;;;;;;12.50;9.25;;;;;-1.37;96.10;99782.69;6331969;20;1810795;-41
2022/01/21 02:44:45;;;;;;;;;6.00;5.50;;;;;-1.25;96.21;99786.91;6332771;20;1822208;-42
2022/01/21 02:47:13;;;;;;;;;9.00;8.00;;;;;-1.46;96.57;99776.63;6315468;20;2743115;-42
2022/01/21 02:49:40;;;;;;;;;12.00;7.00;;;;;-1.40;97.27;99771.28;6314093;20;2768997;-43
2022/01/21 02:52:09;;;;;;;;;7.00;4.00;;;;;-1.52;97.30;99766.19;6301275;20;1825274;-43
2022/01/21 02:54:37;;;;;;;;;6.00;6.00;;;;;-1.53;97.54;99767.91;6308556;20;3464957;-42
2022/01/21 02:57:07;;;;;;;;;9.25;7.75;;;;;-1.61;97.58;99746.06;6334296;20;1835764;-43
2022/01/21 02:59:37;;;;;;;;;8.50;6.25;;;;;-1.69;98.02;99733.00;6329993;20;1827415;-41
2022/01/21 03:02:05;;;;;;;;;4.00;4.00;;;;;-1.81;97.83;99718.22;6316019;20;3443029;-41
2022/01/21 03:05:01;;;;;;;;;13.50;9.50;;;;;-1.77;98.03;99719.06;6331669;20;1832635;-41
2022/01/21 03:07:25;;;;;;;;;11.75;8.00;;;;;-1.73;97.22;99727.81;6330732;20;1825339;-43
2022/01/21 03:09:53;;;;;;;;;8.00;5.00;;;;;-1.78;97.85;99710.28;6313809;20;3463817;-41
2022/01/21 03:12:21;;;;;;;;;6.33;5.00;;;;;-1.87;98.28;99701.63;6314391;20;3458551;-41
2022/01/21 03:14:49;;;;;;;;;7.67;5.67;;;;;-1.84;98.56;99718.25;6313037;20;3461751;-42
2022/01/21 03:17:17;;;;;;;;;14.00;13.00;;;;;-1.72;97.61;99733.03;6312365;20;2772166;-41
2022/01/21 03:19:45;;;;;;;;;17.50;11.00;;;;;-1.61;97.29;99751.34;6282381;20;2790900;-41
2022/01/21 03:22:13;;;;;;;;;13.33;10.00;;;;;-1.69;97.17;99755.81;6284325;20;3499201;-43
2022/01/21 03:24:41;;;;;;;;;11.50;10.00;;;;;-1.78;96.88;99746.28;6280892;20;2784639;-43
2022/01/21 03:27:09;;;;;;;;;5.00;5.00;;;;;-1.60;96.71;99740.81;6283703;20;3445074;-43
2022/01/21 03:29:37;;;;;;;;;8.33;8.33;;;;;-1.59;96.51;99745.16;6315114;20;3447145;-41
2022/01/21 03:32:06;;;;;;;;;7.50;5.50;;;;;-1.70;96.69;99749.69;6329099;20;1827989;-43
2022/01/21 03:34:36;;;;;;;;;13.00;7.75;;;;;-1.58;95.37;99749.56;6331455;20;1819047;-44
2022/01/21 03:37:04;;;;;;;;;7.25;4.00;;;;;-1.41;95.39;99751.97;6332908;20;1824062;-42
2022/01/21 03:39:32;;;;;;;;;4.67;4.67;;;;;-1.47;95.07;99749.44;6315683;20;3459619;-42
2022/01/21 03:42:00;;;;;;;;;5.67;5.00;;;;;-1.48;95.09;99750.31;6312431;20;3457599;-42
2022/01/21 03:44:29;;;;;;;;;7.00;7.00;;;;;-1.45;94.77;99738.88;6331476;20;1822217;-42
2022/01/21 03:46:56;;;;;;;;;12.00;7.00;;;;;-1.57;94.42;99738.13;6313800;20;2771110;-43
2022/01/21 03:49:25;;;;;;;;;11.00;7.00;;;;;-1.25;95.19;99743.91;6312511;20;2765921;-42
2022/01/21 03:51:53;;;;;;;;;5.00;4.00;;;;;-0.92;95.91;99745.22;6310645;20;3457625;-43
2022/01/21 03:54:22;;;;;;;;;10.25;6.50;;;;;-1.29;95.01;99755.34;6330443;20;1819118;-48
2022/01/21 03:56:50;;;;;;;;;8.00;8.00;;;;;-1.27;94.95;99751.81;6332861;20;1832653;-42
2022/01/21 03:59:18;;;;;;;;;10.00;10.00;;;;;-1.10;95.58;99751.59;6315103;20;2769000;-43
2022/01/21 04:01:48;;;;;;;;;9.17;9.17;;;;;-1.51;95.16;99752.13;6352769;20;1815897;-42
2022/01/21 04:04:16;;;;;;;;;11.00;9.00;;;;;-1.23;95.59;99753.53;6278602;20;2767952;-44
2022/01/21 04:06:44;;;;;;;;;15.00;15.00;;;;;-1.33;95.79;99757.16;6278966;20;2705471;-42
2022/01/21 04:09:12;;;;;;;;;10.50;8.00;;;;;-1.59;94.99;99755.69;6312167;20;2767930;-42
2022/01/21 04:11:39;;;;;;;;;8.00;8.00;;;;;-1.27;94.75;99761.47;6284070;20;2747125;-42
2022/01/21 04:14:10;;;;;;;;;10.17;7.50;;;;;-1.50;94.71;99754.75;6351054;20;1821102;-41
2022/01/21 04:16:38;;;;;;;;;17.50;12.00;;;;;-1.37;94.64;99758.06;6282727;20;2798205;-42
2022/01/21 04:19:05;;;;;;;;;9.50;7.50;;;;;-1.51;94.65;99767.91;6280724;20;2760730;-42
2022/01/21 04:21:34;;;;;;;;;10.50;7.00;;;;;-1.40;94.89;99774.78;6300154;20;1823230;-41
2022/01/21 04:24:03;;;;;;;;;8.00;6.33;;;;;-1.70;95.02;99770.75;6311120;20;3466900;-43
2022/01/21 04:26:30;;;;;;;;;5.00;5.00;;;;;-1.59;95.12;99771.50;6286131;20;3462755;-42
2022/01/21 04:28:59;;;;;;;;;7.75;7.50;;;;;-1.62;94.89;99770.66;6338181;20;1819054;-42
2022/01/21 04:31:28;;;;;;;;;12.80;10.80;;;;;-1.28;95.79;99771.16;6343418;20;2783607;-43
2022/01/21 04:33:56;;;;;;;;;10.50;9.50;;;;;-1.30;94.52;99772.06;6285395;20;2770078;-42
2022/01/21 04:36:24;;;;;;;;;7.50;5.00;;;;;-1.47;93.95;99761.72;6286125;20;2749318;-43
2022/01/21 04:38:55;;;;;;;;;8.00;5.00;;;;;-1.29;93.68;99776.41;6318936;20;3456468;-42
2022/01/21 04:41:42;;;;;;;;;9.00;9.00;;;;;-1.16;94.79;99776.28;6317754;20;2768980;-42
2022/01/21 04:49:45;;;;;;;;;11.00;7.33;;;;;-1.30;99.80;99783.47;6341141;20;1830138;-42
2022/01/21 04:52:13;;;;;;;;;7.67;7.67;;;;;-1.92;100.00;99791.16;6319128;20;3450268;-42
2022/01/21 04:54:42;;;;;;;;;10.75;8.00;;;;;-1.70;100.00;99796.19;6329720;20;1837791;-43
2022/01/21 04:57:11;;;;;;;;;10.75;7.00;;;;;-1.69;100.00;99800.56;6334805;20;1821155;-42
2022/01/21 04:59:41;;;;;;;;;11.25;5.50;;;;;-1.70;100.00;99810.22;6334478;20;1831584;-43
2022/01/21 05:02:11;;;;;;;;;8.00;8.00;;;;;-1.85;100.00;99811.22;6334344;20;1827398;-43
2022/01/21 05:04:39;;;;;;;;;7.00;5.00;;;;;-1.70;100.00;99815.50;6316600;20;3455463;-43
2022/01/21 05:07:10;;;;;;;;;7.00;7.00;;;;;-1.81;100.00;99812.09;6334383;20;1819029;-42
2022/01/21 05:09:39;;;;;;;;;7.75;5.00;;;;;-1.80;100.00;99812.06;6334542;20;1825311;-43
2022/01/21 05:12:09;;;;;;;;;5.00;4.75;;;;;-1.73;100.00;99815.53;6338082;20;1817687;-42
2022/01/21 05:14:48;;;;;;;;;1.17;0.00;;;;;-1.71;99.49;99818.13;6353368;20;2727921;-42
2022/01/21 05:17:16;;;;;;;;;7.00;7.00;;;;;-1.69;97.65;99819.00;6283010;20;3455451;-42
2022/01/21 05:19:45;;;;;;;;;7.75;6.00;;;;;-1.48;97.03;99831.06;6336364;20;1822821;-42
2022/01/21 05:22:13;;;;;;;;;7.75;7.25;;;;;-1.36;96.43;99825.69;6336921;20;1830585;-43
2022/01/21 05:24:44;;;;;;;;;7.67;3.67;;;;;-1.31;94.61;99831.75;6314982;20;3472113;-43
2022/01/21 05:27:13;;;;;;;;;5.00;3.33;;;;;-1.40;93.04;99827.44;6317158;20;3464849;-44
2022/01/21 05:29:41;;;;;;;;;3.00;3.00;;;;;-1.28;93.06;99829.09;6318548;20;3466910;-42
2022/01/21 05:32:09;;;;;;;;;7.00;4.00;;;;;-1.51;92.90;99829.34;6318447;20;3451313;-41
2022/01/21 05:34:37;;;;;;;;;7.33;6.33;;;;;-1.16;92.78;99843.88;6315724;20;3468137;-49
2022/01/21 05:37:09;;;;;;;;;11.50;8.00;;;;;-1.27;91.30;99843.13;6333017;20;1824317;-42
2022/01/21 05:39:37;;;;;;;;;5.00;5.00;;;;;-1.43;90.28;99855.59;6313376;20;3464864;-43
2022/01/21 05:42:07;;;;;;;;;7.33;4.00;;;;;-1.48;89.80;99860.88;6318630;20;3448141;-42
2022/01/21 05:47:07;;;;;;;;;7.00;5.00;;;;;-1.52;89.52;99876.75;6316908;20;3470088;-42
2022/01/21 05:49:37;;;;;;;;;9.75;7.00;;;;;-1.75;89.40;99869.94;6333812;20;1830638;-42
2022/01/21 05:52:11;;;;;;;;;11.00;7.33;;;;;-1.65;89.17;99874.22;6313546;20;3478327;-42
2022/01/21 05:54:38;;;;;;;;;6.33;6.33;;;;;-1.84;90.17;99877.91;6314178;20;3463799;-41
2022/01/21 05:57:11;;;;;;;;;9.75;4.25;;;;;-1.70;89.84;99883.06;6333730;20;1838395;-42
2022/01/21 05:59:40;;;;;;;;;7.67;7.00;;;;;-1.97;90.33;99879.75;6315797;20;3460670;-41
2022/01/21 06:02:09;;;;;;;;;8.00;7.33;;;;;-1.35;91.94;99880.94;6315854;20;3465918;-42
2022/01/21 06:04:40;;;;;;;;;1.67;1.67;;;;;-1.61;89.62;99888.22;6312280;20;2739956;-41
2022/01/21 06:07:09;;;;;;;;;6.33;5.00;;;;;-1.75;88.51;99890.13;6315461;20;3470079;-43
2022/01/21 06:09:37;;;;;;;;;2.00;2.00;;;;;-1.68;89.79;99897.94;6311677;20;3469055;-41
2022/01/21 06:12:06;;;;;;;;;10.00;5.00;;;;;-1.49;88.50;99895.16;6282932;20;3493083;-41
2022/01/21 06:14:40;;;;;;;;;11.00;9.00;;;;;-1.48;88.00;99894.25;6314060;20;3488760;-44
2022/01/21 06:17:14;;;;;;;;;8.67;7.33;;;;;-1.70;87.62;99894.44;6315297;20;3473130;-42
2022/01/21 06:19:43;;;;;;;;;19.00;12.00;;;;;-1.66;87.96;99904.09;6315494;20;2790874;-42
2022/01/21 06:22:12;;;;;;;;;27.00;16.67;;;;;-1.70;87.20;99909.38;6285069;20;3558530;-42
2022/01/21 06:24:41;;;;;;;;;12.50;8.00;;;;;-1.68;86.64;99913.75;6333483;20;1825275;-44
2022/01/21 06:27:10;;;;;;;;;8.00;8.00;;;;;-1.70;86.42;99918.13;6333229;20;1816936;-42
2022/01/21 06:29:38;;;;;;;;;20.00;11.00;;;;;-1.84;86.34;99915.63;6315541;20;2794155;-45
2022/01/21 06:32:06;;;;;;;;;7.50;7.50;;;;;-1.83;86.52;99924.38;6285964;20;2764859;-41
2022/01/21 06:34:34;;;;;;;;;10.00;8.00;;;;;-1.80;86.54;99924.34;6313457;20;2762773;-41
2022/01/21 06:37:02;;;;;;;;;8.00;8.00;;;;;-1.75;86.11;99925.19;6313027;20;2750265;-42
2022/01/21 06:39:30;;;;;;;;;10.00;10.00;;;;;-1.74;85.79;99929.56;6311956;20;3505587;-42
2022/01/21 06:41:58;;;;;;;;;13.00;13.00;;;;;-1.89;85.59;99940.22;6282590;20;2804452;-42
2022/01/21 06:44:27;;;;;;;;;10.00;10.00;;;;;-1.75;85.86;99946.25;6296992;20;1826721;-43
2022/01/21 06:46:54;;;;;;;;;10.50;8.00;;;;;-1.69;86.23;99954.09;6315001;20;2758578;-41
2022/01/21 06:49:22;;;;;;;;;15.00;11.00;;;;;-1.44;86.37;99953.91;6313641;20;2799216;-45
2022/01/21 06:51:50;;;;;;;;;15.00;11.00;;;;;-1.36;85.73;99959.97;6279991;20;2786098;-43
2022/01/21 06:54:19;;;;;;;;;12.50;7.00;;;;;-1.42;85.15;99970.56;6300916;20;1825269;-42
2022/01/21 06:56:47;;;;;;;;;15.00;11.00;;;;;-1.18;84.98;99970.34;6316313;20;2776311;-42
2022/01/21 06:59:17;;;;;;;;;13.50;8.00;;;;;-1.28;84.55;99984.50;6290821;20;2757540;-42
2022/01/21 07:01:47;;;;;;;;;12.00;11.00;;;;;-1.31;84.71;99989.78;6311752;20;2791938;-43
2022/01/21 07:04:15;;;;;;;;;14.00;11.50;;;;;-1.27;83.91;99988.00;6281262;20;2781511;-42
2022/01/21 07:06:45;;;;;;;;;15.00;7.00;;;;;-0.26;81.90;99998.34;6312924;20;2756510;-42
2022/01/21 07:09:15;;;;;;;;;11.00;8.33;;;;;-0.47;79.52;100010.03;6313498;20;3478420;-42
2022/01/21 07:11:46;;;;;;;;;14.00;7.25;;;;;-0.56;79.00;100007.47;6332393;20;1831664;-41
2022/01/21 07:14:17;;;;;;;;;8.75;7.75;;;;;-1.18;80.53;100009.88;6332902;20;1825378;-42
2022/01/21 07:16:49;;;;;;;;;14.00;11.00;;;;;-1.23;80.77;100016.94;6354849;20;1809637;-42
2022/01/21 07:19:17;;;;;;;;;4.00;4.00;;;;;-1.17;81.44;100021.28;6287024;20;2751358;-42
2022/01/21 07:21:45;;;;;;;;;9.00;8.50;;;;;-1.23;80.58;100024.84;6314847;20;2753396;-43
2022/01/21 07:24:13;;;;;;;;;8.50;6.50;;;;;-1.26;80.24;100026.59;6332660;20;1828556;-42
2022/01/21 07:26:44;;;;;;;;;10.83;6.67;;;;;-1.13;79.94;100034.41;6351408;20;1812537;-43
2022/01/21 07:29:14;;;;;;;;;1.00;1.00;;;;;-1.15;79.30;100036.19;6288117;20;2737875;-42
2022/01/21 07:31:45;;;;;;;;;5.67;5.00;;;;;-1.11;78.73;100037.91;6314841;20;3455444;-44
2022/01/21 07:34:12;;;;;;;;;8.00;8.00;;;;;-0.77;80.44;100037.59;6312940;20;2742955;-47
2022/01/21 07:36:40;;;;;;;;;14.00;8.50;;;;;-0.77;79.80;100048.13;6316281;20;2755567;-42
2022/01/21 07:39:09;;;;;;;;;11.00;8.50;;;;;-0.93;79.30;100041.25;6334205;20;1813781;-45
2022/01/21 07:41:36;;;;;;;;;7.00;7.00;;;;;-0.89;78.82;100037.72;6317912;20;3461748;-43
2022/01/21 07:44:05;;;;;;;;;11.00;11.00;;;;;-1.09;77.98;100044.94;6317506;20;2774178;-43
2022/01/21 07:46:33;;;;;;;;;13.33;10.67;;;;;-0.61;77.77;100051.47;6283100;20;3490871;-42
2022/01/21 07:49:04;;;;;;;;;19.67;18.33;;;;;-0.78;76.38;100051.66;6286684;20;3560630;-43
2022/01/21 07:51:34;;;;;;;;;7.00;7.00;;;;;-0.71;76.70;100060.38;6337368;20;1815977;-43
2022/01/21 07:54:03;;;;;;;;;4.00;4.00;;;;;-0.10;77.99;100061.50;6316789;20;3466881;-42
2022/01/21 07:56:34;;;;;;;;;5.75;5.00;;;;;-0.57;76.16;100063.75;6335370;20;1822143;-44
2022/01/21 07:59:11;;;;;;;;;13.50;10.50;;;;;-0.52;75.72;100063.72;6316644;20;2773129;-43
2022/01/21 08:01:40;;;;;;;;;10.00;10.00;;;;;-0.57;75.07;100065.53;6311850;20;1827290;-42
2022/01/21 08:04:11;;;;;;;;;9.50;6.50;;;;;-0.41;75.23;100066.25;6361653;20;1817005;-43
2022/01/21 08:06:40;;;;;;;;;24.00;16.00;;;;;-0.40;73.80;100075.91;6292250;20;3570113;-43
2022/01/21 08:09:09;;;;;;;;;24.33;13.00;;;;;-0.55;73.90;100069.03;6320901;20;2822263;-42
2022/01/21 08:11:37;;;;;;;;;21.00;19.00;;;;;-0.54;73.62;100065.50;6322110;20;2835658;-43
2022/01/21 08:14:06;;;;;;;;;28.67;21.33;;;;;-0.39;73.89;100070.63;6290012;20;3576335;-44
2022/01/21 08:16:38;;;;;;;;;15.00;9.00;;;;;-0.46;73.87;100059.25;6321679;20;2760633;-42
2022/01/21 08:19:06;;;;;;;;;18.00;12.00;;;;;-0.60;73.24;100070.84;6288582;20;2793975;-42
2022/01/21 08:21:43;;;;;;;;;7.00;7.00;;;;;-0.57;73.18;100078.72;6289881;20;2747200;-43
2022/01/21 08:24:13;;;;;;;;;12.33;8.00;;;;;-0.48;73.51;100075.97;6323043;20;3485751;-44
2022/01/21 08:26:44;;;;;;;;;7.67;5.00;;;;;-0.14;74.60;100075.59;6321696;20;3465988;-43
2022/01/21 08:29:14;;;;;;;;;5.00;3.00;;;;;-0.20;73.35;100070.41;6321793;20;3459611;-46
2022/01/21 08:31:46;;;;;;;;;8.25;4.00;;;;;-0.36;73.57;100074.97;6336122;20;1831525;-46
2022/01/21 08:34:15;;;;;;;;;12.00;9.00;;;;;-0.03;74.36;100078.97;6317638;20;2774260;-43
2022/01/21 08:36:44;;;;;;;;;8.00;8.00;;;;;-0.37;72.90;100084.66;6291084;20;3465951;-44
2022/01/21 08:39:13;;;;;;;;;1.00;1.00;;;;;-0.31;71.90;100089.88;6292295;20;2729478;-42
2022/01/21 08:41:42;;;;;;;;;10.25;6.75;;;;;-0.14;71.88;100083.53;6339149;20;1826392;-43
2022/01/21 08:44:11;;;;;;;;;10.25;7.00;;;;;-0.18;71.11;100100.28;6339408;20;1833814;-43
2022/01/21 08:46:40;;;;;;;;;7.00;6.00;;;;;-0.36;71.33;100086.41;6336558;20;1825292;-43
2022/01/21 08:49:28;;;;;;;;;7.67;4.00;;;;;-0.41;71.55;100098.75;6345906;20;1833122;-42
2022/01/21 08:52:00;;;;;;;;;12.00;4.50;;;;;-0.18;71.29;100101.16;6321741;20;2768131;-42
2022/01/21 08:54:29;;;;;;;;;7.00;7.00;;;;;-0.32;72.06;100103.94;6288499;20;3467994;-44
2022/01/21 08:56:57;;;;;;;;;7.33;4.00;;;;;-0.02;71.52;100105.38;6291106;20;3454492;-43
2022/01/21 08:59:31;;;;;;;;;8.25;5.00;;;;;-0.37;71.61;100094.31;6339098;20;1820070;-43
2022/01/21 09:01:59;;;;;;;;;7.67;4.00;;;;;0.02;71.61;100102.69;6322902;20;3453369;-42
2022/01/21 09:04:27;;;;;;;;;7.00;7.00;;;;;-0.18;71.74;100098.53;6320715;20;3464841;-44
2022/01/21 09:06:55;;;;;;;;;5.00;4.00;;;;;-0.10;71.17;100114.28;6290236;20;2737768;-43
2022/01/21 09:09:25;;;;;;;;;10.25;4.75;;;;;0.07;73.63;100112.28;6336983;20;1831599;-43
2022/01/21 09:12:00;;;;;;;;;10.00;7.00;;;;;0.19;74.65;100106.88;6320782;20;2762793;-47
2022/01/21 09:14:30;;;;;;;;;10.00;10.00;;;;;0.20;72.80;100103.31;6320706;20;3516898;-43
2022/01/21 09:17:01;;;;;;;;;11.00;7.00;;;;;0.09;71.93;100115.78;6309998;20;1827396;-42
2022/01/21 09:19:32;;;;;;;;;15.20;14.00;;;;;0.28;72.31;100115.56;6343467;20;2789866;-43
2022/01/21 09:22:02;;;;;;;;;5.00;5.00;;;;;0.37;72.86;100123.34;6306410;20;1820189;-43
2022/01/21 09:24:33;;;;;;;;;7.50;5.00;;;;;0.09;71.18;100126.34;6337263;20;1819104;-42
2022/01/21 09:27:03;;;;;;;;;12.50;10.00;;;;;0.19;71.35;100121.84;6319150;20;2773188;-42
2022/01/21 09:29:33;;;;;;;;;11.50;8.50;;;;;0.12;71.17;100121.03;6286299;20;2763809;-42
2022/01/21 09:32:04;;;;;;;;;4.00;2.00;;;;;0.19;70.78;100125.34;6289502;20;3451374;-43
2022/01/21 09:34:33;;;;;;;;;6.00;4.00;;;;;0.23;70.93;100120.91;6318275;20;3476260;-42
2022/01/21 09:37:02;;;;;;;;;6.50;5.00;;;;;0.20;71.48;100108.59;6307473;20;1825275;-42
2022/01/21 09:39:34;;;;;;;;;7.67;5.00;;;;;0.24;71.01;100113.84;6320478;20;3459696;-42
2022/01/21 09:42:04;;;;;;;;;7.67;7.00;;;;;0.19;70.92;100095.44;6322524;20;3465827;-43
2022/01/21 09:44:33;;;;;;;;;8.75;8.75;;;;;0.27;70.13;100117.34;6307328;20;1810786;-46
2022/01/21 09:47:04;;;;;;;;;7.00;4.00;;;;;0.41;70.29;100127.72;6336643;20;1825199;-43
2022/01/21 09:49:34;;;;;;;;;4.00;4.00;;;;;0.44;69.66;100127.69;6321611;20;3461689;-43
2022/01/21 09:52:13;;;;;;;;;7.00;5.00;;;;;0.37;69.62;100120.72;6318599;20;3459666;-42
2022/01/21 09:54:47;;;;;;;;;9.33;4.33;;;;;0.37;69.95;100123.34;6318993;20;3474241;-44
2022/01/21 09:57:26;;;;;;;;;5.67;1.67;;;;;0.71;70.42;100112.34;6320678;20;3461790;-43
2022/01/21 09:59:55;;;;;;;;;7.33;4.67;;;;;0.71;69.21;100104.41;6321854;20;3455436;-43
2022/01/21 10:02:29;;;;;;;;;7.00;5.50;;;;;0.38;68.36;100093.44;6320890;20;2752303;-43
2022/01/21 10:04:59;;;;;;;;;9.00;5.00;;;;;0.68;68.03;100078.91;6320779;20;2750215;-46
2022/01/21 10:07:30;;;;;;;;;7.00;7.00;;;;;0.82;68.08;100071.66;6336691;20;1815933;-43
2022/01/21 10:10:00;;;;;;;;;9.00;5.00;;;;;0.77;67.18;100077.91;6287554;20;2756490;-43
2022/01/21 10:12:31;;;;;;;;;2.00;2.00;;;;;0.76;66.93;100076.13;6337696;20;1820125;-47
2022/01/21 10:15:06;;;;;;;;;4.00;4.00;;;;;0.50;65.84;100069.50;6334205;20;1825251;-43
2022/01/21 10:18:08;;;;;;;;;14.00;12.00;;;;;0.84;66.93;100064.56;6318003;20;2779439;-42
2022/01/21 10:21:07;;;;;;;;;18.50;11.50;;;;;0.91;66.53;100067.09;6287553;20;2799225;-43
2022/01/21 10:23:39;;;;;;;;;8.50;8.00;;;;;0.76;66.43;100076.13;6286312;20;2740975;-42
2022/01/21 10:26:19;;;;;;;;;7.00;5.00;;;;;0.93;65.83;100067.97;6320261;20;3472095;-42
2022/01/21 10:28:58;;;;;;;;;10.00;10.00;;;;;0.82;65.08;100070.78;6319033;20;2765837;-42
2022/01/21 10:31:27;;;;;;;;;6.50;4.00;;;;;0.92;64.65;100067.06;6290409;20;2752304;-42
2022/01/21 10:34:04;;;;;;;;;3.33;3.33;;;;;0.84;63.65;100067.22;6319422;20;3450371;-43
2022/01/21 10:36:44;;;;;;;;;4.33;4.00;;;;;1.02;63.16;100068.66;6317493;20;3458590;-41
2022/01/21 10:39:27;;;;;;;;;4.50;4.50;;;;;0.84;62.64;100074.25;6322125;20;2733644;-43
2022/01/21 10:41:59;;;;;;;;;14.00;9.00;;;;;1.06;61.74;100080.09;6338344;20;1825866;-42
2022/01/21 10:44:30;;;;;;;;;4.25;4.00;;;;;1.26;61.80;100092.94;6335318;20;1823216;-43
2022/01/21 10:47:04;;;;;;;;;12.00;11.50;;;;;1.35;61.72;100090.16;6318302;20;2791885;-42
2022/01/21 10:49:33;;;;;;;;;4.33;4.00;;;;;1.17;61.62;100087.84;6286090;20;3461849;-42
2022/01/21 10:52:04;;;;;;;;;16.00;8.00;;;;;1.65;62.26;100090.50;6311560;20;2780451;-42
2022/01/21 10:54:47;;;;;;;;;26.67;14.67;;;;;1.16;62.67;100081.69;6309672;20;2850729;-43
2022/01/21 10:57:22;;;;;;;;;8.00;5.00;;;;;1.44;63.71;100081.19;6318991;20;2751257;-43
2022/01/21 11:00:09;;;;;;;;;4.00;4.00;;;;;1.46;61.63;100082.91;6336624;20;1818052;-43
2022/01/21 11:02:47;;;;;;;;;2.00;2.00;;;;;1.03;62.26;100081.00;6319712;20;3453371;-44
2022/01/21 11:05:31;;;;;;;;;4.25;2.00;;;;;1.38;62.41;100089.25;6334916;20;1825263;-44
2022/01/21 11:08:06;;;;;;;;;16.00;10.00;;;;;1.46;61.55;100092.63;6316209;20;2785786;-43
2022/01/21 11:10:49;;;;;;;;;8.50;4.50;;;;;1.43;62.56;100095.31;6305933;20;1818024;-43
2022/01/21 11:13:20;;;;;;;;;10.25;10.25;;;;;1.23;62.61;100108.88;6334437;20;1819009;-42
2022/01/21 11:16:11;;;;;;;;;4.00;4.00;;;;;1.16;62.43;100109.88;6337366;20;1814516;-43
2022/01/21 11:19:10;;;;;;;;;13.00;8.00;;;;;1.39;62.57;100110.34;6313326;20;2785705;-46
2022/01/21 11:21:56;;;;;;;;;7.50;7.00;;;;;1.09;63.40;100114.41;6284726;20;2754392;-43
2022/01/21 11:24:27;;;;;;;;;1.00;1.00;;;;;0.97;63.77;100112.81;6284898;20;3443079;-42
2022/01/21 11:27:21;;;;;;;;;4.25;2.00;;;;;0.92;64.22;100103.19;6337197;20;1822189;-42
2022/01/21 11:29:49;;;;;;;;;7.00;7.00;;;;;1.07;64.83;100092.38;6316895;20;2752393;-42
2022/01/21 11:32:18;;;;;;;;;10.50;9.00;;;;;1.23;64.72;100096.53;6286418;20;2752392;-44
2022/01/21 11:34:47;;;;;;;;;11.67;11.67;;;;;1.48;65.43;100083.75;6289907;20;3518963;-42
2022/01/21 11:37:18;;;;;;;;;45.00;36.00;;;;;1.56;65.36;100086.25;6321568;20;2863824;-42
2022/01/21 11:39:50;;;;;;;;;10.00;5.50;;;;;1.71;65.54;100085.09;6321451;20;2761734;-42
2022/01/21 11:42:19;;;;;;;;;8.00;8.00;;;;;1.88;64.40;100090.94;6289818;20;2743976;-44
2022/01/21 11:44:52;;;;;;;;;1.67;1.67;;;;;1.61;66.04;100073.81;6291020;20;3447069;-42
2022/01/21 11:47:50;;;;;;;;;10.50;8.00;;;;;1.35;66.20;100082.22;6321582;20;2751348;-43
2022/01/21 11:50:13;;;;;;;;;17.00;14.50;;;;;1.48;65.05;100062.59;6321381;20;2812758;-42
2022/01/21 11:52:48;;;;;;;;;7.25;3.00;;;;;1.42;64.91;100057.41;6311911;20;1821132;-44
2022/01/21 11:55:45;;;;;;;;;7.50;7.00;;;;;1.24;65.13;100047.16;6319093;20;2757545;-43
2022/01/21 11:58:20;;;;;;;;;20.00;15.00;;;;;1.21;66.18;100050.75;6288669;20;2807555;-42
2022/01/21 12:00:52;;;;;;;;;17.50;9.00;;;;;1.21;65.33;100049.84;6292876;20;2793015;-43
2022/01/21 12:03:23;;;;;;;;;20.00;15.60;;;;;1.39;65.59;100052.16;6311203;20;2820125;-42
2022/01/21 12:05:52;;;;;;;;;7.00;4.25;;;;;1.23;65.21;100040.97;6312821;20;1820049;-44
2022/01/21 12:08:51;;;;;;;;;22.20;11.20;;;;;1.12;66.61;100050.00;6345608;20;2804509;-44
2022/01/21 12:11:35;;;;;;;;;17.50;14.50;;;;;1.07;66.12;100032.44;6308308;20;1831627;-42
2022/01/21 12:14:39;;;;;;;;;13.33;8.17;;;;;0.76;67.14;100040.00;6362041;20;1821136;-43